John Paul K — PBHY — position and weather

sailwx.info

Track history (hours):
 
Tides and Currents Weather Stations Pressure Air Temp Water Temp Dewpoint Dewpoint Depression Visibility Wind Speed Wind Dir Waves Ship Positions

John Paul K

Last reported at 2018-Aug-14 11:38 UTC. Time now 2018-Aug-14 21:09 UTC.
Position N 53°30' E 005°12'.

Length 90 m; draft 6 m.

Type: Cargo ship. MMSI: 245181000.

Date/timePositionNaut miles runAvg speedWind from/ knotsBaromVisibWave heightAir tempDewpointWater temp
2018-Aug-14 11:38N 53°30' E 005°12'211.0
2018-Aug-14 11:30N 53°30' E 005°09'511.1
2018-Aug-14 11:00N 53°28' E 005°01'611.3
2018-Aug-14 10:29N 53°25' E 004°52'511.4
2018-Aug-14 10:00N 53°23' E 004°43'510.6
2018-Aug-14 09:30N 53°18' E 004°39'510.9
2018-Aug-14 09:00N 53°14' E 004°35'1511.0
2018-Aug-14 07:37N 53°00' E 004°23'111.2
2018-Aug-14 07:30N 52°59' E 004°22'3811.9
2018-Aug-14 04:16N 52°29' E 003°42'412.6
2018-Aug-14 03:57N 52°26' E 003°37'6410.7
2018-Aug-13 21:58N 51°38' E 002°28'4 9.2
2018-Aug-13 21:30N 51°35' E 002°23'5 9.3
2018-Aug-13 21:00N 51°31' E 002°19'5 9.5
2018-Aug-13 20:30N 51°27' E 002°15'5 9.8
2018-Aug-13 20:00N 51°23' E 002°11'510.3
2018-Aug-13 19:30N 51°19' E 002°07'510.6
2018-Aug-13 19:00N 51°14' E 002°03'510.8
2018-Aug-13 18:30N 51°11' E 001°56'611.0
2018-Aug-13 18:00N 51°07' E 001°49'611.3
2018-Aug-13 17:30N 51°03' E 001°43'611.7
2018-Aug-13 17:00N 50°59' E 001°37'612.2
2018-Aug-13 16:30N 50°54' E 001°30'28510.5
2018-Aug-12 13:19N 48°55' W 005°11'111 8.8
2018-Aug-12 00:44N 47°11' W 006°08'2 9.9
2018-Aug-12 00:30N 47°08' W 006°09'25 9.5
2018-Aug-11 21:51N 46°44' W 006°15'  
2018-Aug-06 00:46N 47°45' W 006°21'74 9.7
2018-Aug-05 17:07N 48°54' W 005°41'110.6
2018-Aug-05 17:00N 48°55' W 005°40'510.4
2018-Aug-05 16:31N 48°57' W 005°33'510.6
2018-Aug-05 16:00N 48°60' W 005°26'810.7
2018-Aug-05 15:14N 49°04' W 005°15'210.3
2018-Aug-05 14:59N 49°05' W 005°12'8810.1
2018-Aug-05 06:17N 49°50' W 003°15'412.8
2018-Aug-05 05:58N 49°52' W 003°10'1011.0
2018-Aug-05 05:01N 49°57' W 002°56'011.0
2018-Aug-05 05:00N 49°57' W 002°55'1610.3
2018-Aug-05 03:26N 50°02' W 002°32'19 8.5
2018-Aug-05 01:16N 50°08' W 002°04'2 7.6
2018-Aug-05 00:59N 50°08' W 002°01'9 7.7
2018-Aug-04 23:48N 50°11' W 001°47'3 8.1
2018-Aug-04 23:28N 50°12' W 001°43'8010.8
2018-Aug-04 16:02N 50°35' E 000°17'010.1
2018-Aug-04 15:59N 50°35' E 000°18'5 9.9
2018-Aug-04 15:30N 50°37' E 000°25'5 9.6
2018-Aug-04 15:00N 50°38' E 000°32'5 9.4
2018-Aug-04 14:30N 50°41' E 000°38'5 9.6
2018-Aug-04 14:00N 50°43' E 000°45'5 9.9
2018-Aug-04 13:30N 50°46' E 000°51'510.3
2018-Aug-04 13:00N 50°49' E 000°58'510.8
2018-Aug-04 12:31N 50°52' E 001°05'711.6
2018-Aug-04 11:55N 50°57' E 001°13'  
Track history (hours):
 
Tides and Currents Weather Stations Pressure Air Temp Water Temp Dewpoint Dewpoint Depression Visibility Wind Speed Wind Dir Waves Ship Positions

John Paul K

Last reported at 2018-Aug-14 11:38 UTC. Time now 2018-Aug-14 21:09 UTC.
Position N 53°30' E 005°12'.

Length 90 m; draft 6 m.

Type: Cargo ship. MMSI: 245181000.

Date/timePositionNaut miles runAvg speedWind from/ knotsBaromVisibWave heightAir tempDewpointWater temp
2018-Aug-14 11:38N 53°30' E 005°12'211.0
2018-Aug-14 11:30N 53°30' E 005°09'511.1
2018-Aug-14 11:00N 53°28' E 005°01'611.3
2018-Aug-14 10:29N 53°25' E 004°52'511.4
2018-Aug-14 10:00N 53°23' E 004°43'510.6
2018-Aug-14 09:30N 53°18' E 004°39'510.9
2018-Aug-14 09:00N 53°14' E 004°35'1511.0
2018-Aug-14 07:37N 53°00' E 004°23'111.2
2018-Aug-14 07:30N 52°59' E 004°22'3811.9
2018-Aug-14 04:16N 52°29' E 003°42'412.6
2018-Aug-14 03:57N 52°26' E 003°37'6410.7
2018-Aug-13 21:58N 51°38' E 002°28'4 9.2
2018-Aug-13 21:30N 51°35' E 002°23'5 9.3
2018-Aug-13 21:00N 51°31' E 002°19'5 9.5
2018-Aug-13 20:30N 51°27' E 002°15'5 9.8
2018-Aug-13 20:00N 51°23' E 002°11'510.3
2018-Aug-13 19:30N 51°19' E 002°07'510.6
2018-Aug-13 19:00N 51°14' E 002°03'510.8
2018-Aug-13 18:30N 51°11' E 001°56'611.0
2018-Aug-13 18:00N 51°07' E 001°49'611.3
2018-Aug-13 17:30N 51°03' E 001°43'611.7
2018-Aug-13 17:00N 50°59' E 001°37'612.2
2018-Aug-13 16:30N 50°54' E 001°30'28510.5
2018-Aug-12 13:19N 48°55' W 005°11'111 8.8
2018-Aug-12 00:44N 47°11' W 006°08'2 9.9
2018-Aug-12 00:30N 47°08' W 006°09'25 9.5
2018-Aug-11 21:51N 46°44' W 006°15'  
2018-Aug-06 00:46N 47°45' W 006°21'74 9.7
2018-Aug-05 17:07N 48°54' W 005°41'110.6
2018-Aug-05 17:00N 48°55' W 005°40'510.4
2018-Aug-05 16:31N 48°57' W 005°33'510.6
2018-Aug-05 16:00N 48°60' W 005°26'810.7
2018-Aug-05 15:14N 49°04' W 005°15'210.3
2018-Aug-05 14:59N 49°05' W 005°12'8810.1
2018-Aug-05 06:17N 49°50' W 003°15'412.8
2018-Aug-05 05:58N 49°52' W 003°10'1011.0
2018-Aug-05 05:01N 49°57' W 002°56'011.0
2018-Aug-05 05:00N 49°57' W 002°55'1610.3
2018-Aug-05 03:26N 50°02' W 002°32'19 8.5
2018-Aug-05 01:16N 50°08' W 002°04'2 7.6
2018-Aug-05 00:59N 50°08' W 002°01'9 7.7
2018-Aug-04 23:48N 50°11' W 001°47'3 8.1
2018-Aug-04 23:28N 50°12' W 001°43'8010.8
2018-Aug-04 16:02N 50°35' E 000°17'010.1
2018-Aug-04 15:59N 50°35' E 000°18'5 9.9
2018-Aug-04 15:30N 50°37' E 000°25'5 9.6
2018-Aug-04 15:00N 50°38' E 000°32'5 9.4
2018-Aug-04 14:30N 50°41' E 000°38'5 9.6
2018-Aug-04 14:00N 50°43' E 000°45'5 9.9
2018-Aug-04 13:30N 50°46' E 000°51'510.3
2018-Aug-04 13:00N 50°49' E 000°58'510.8
2018-Aug-04 12:31N 50°52' E 001°05'711.6
2018-Aug-04 11:55N 50°57' E 001°13'  

Dump ship's entire track history